Time;durP1;ratioP1;P1;durP2;ratioP2;P2;SDS_P1;SDS_P2;PMS_P1;PMS_P2;Temp;Humidity;BMP_temperature;BMP_pressure;BME280_temperature;BME280_humidity;BME280_pressure;Samples;Min_cycle;Max_cycle;Signal;HPM_P1;HPM_P2
2021/10/05 00:01:45;;;;;;;30.43;15.57;;;7.80;99.90;;;;;;4189925;28;20066;-71
2021/10/05 00:03:46;;;;;;;30.37;15.93;;;7.80;99.90;;;;;;4191340;28;20032;-65
2021/10/05 00:05:47;;;;;;;36.57;17.07;;;7.80;99.90;;;;;;4189626;28;20033;-68
2021/10/05 00:07:49;;;;;;;33.83;16.77;;;7.80;99.90;;;;;;4190760;28;20102;-67
2021/10/05 00:09:50;;;;;;;35.37;18.77;;;7.80;99.90;;;;;;4189913;28;20032;-66
2021/10/05 00:11:51;;;;;;;28.97;17.27;;;7.80;99.90;;;;;;4190559;28;20093;-65
2021/10/05 00:13:52;;;;;;;40.53;17.17;;;7.70;99.90;;;;;;4190517;28;20044;-69
2021/10/05 00:15:54;;;;;;;33.87;17.63;;;7.70;99.90;;;;;;4189929;28;20025;-68
2021/10/05 00:17:55;;;;;;;30.80;17.37;;;7.80;99.90;;;;;;4190843;28;20448;-71
2021/10/05 00:19:56;;;;;;;31.57;17.03;;;7.80;99.90;;;;;;4189416;28;20032;-69
2021/10/05 00:21:57;;;;;;;26.43;16.33;;;7.80;99.90;;;;;;4190176;28;20028;-65
2021/10/05 00:23:58;;;;;;;36.23;16.37;;;7.90;99.90;;;;;;4189680;28;20078;-68
2021/10/05 00:25:59;;;;;;;29.60;15.47;;;7.90;99.90;;;;;;4190567;28;20028;-70
2021/10/05 00:28:02;;;;;;;32.07;15.63;;;7.90;99.90;;;;;;4189534;28;20032;-71
2021/10/05 00:30:05;;;;;;;27.13;16.23;;;7.90;99.90;;;;;;4190762;28;20040;-65
2021/10/05 00:32:06;;;;;;;29.30;15.30;;;7.90;99.90;;;;;;4189676;28;20091;-67
2021/10/05 00:34:08;;;;;;;30.77;15.73;;;7.70;99.90;;;;;;4190775;28;20465;-67
2021/10/05 00:36:09;;;;;;;32.20;15.27;;;7.60;99.90;;;;;;4189123;28;20930;-66
2021/10/05 00:38:10;;;;;;;21.63;12.27;;;7.60;99.90;;;;;;4191047;28;20050;-66
2021/10/05 00:40:11;;;;;;;24.47;13.63;;;7.50;99.90;;;;;;4189885;28;20021;-64
2021/10/05 00:42:13;;;;;;;26.83;14.13;;;7.50;99.90;;;;;;4190306;28;20036;-69
2021/10/05 00:44:14;;;;;;;27.87;14.57;;;7.40;99.90;;;;;;4189615;28;20032;-66
2021/10/05 00:46:18;;;;;;;27.40;14.00;;;7.30;99.90;;;;;;4189826;28;20025;-71
2021/10/05 00:48:19;;;;;;;24.87;14.53;;;7.30;99.90;;;;;;4190190;28;20040;-65
2021/10/05 00:50:20;;;;;;;24.60;13.37;;;7.20;99.90;;;;;;4189376;28;20032;-67
2021/10/05 00:52:22;;;;;;;30.20;13.57;;;7.20;99.90;;;;;;4190513;28;20153;-66
2021/10/05 00:54:23;;;;;;;29.60;14.93;;;7.20;99.90;;;;;;4189544;28;20118;-70
2021/10/05 00:56:24;;;;;;;28.40;15.80;;;7.20;99.90;;;;;;4190664;28;20044;-70
2021/10/05 00:58:25;;;;;;;40.07;18.33;;;7.10;99.90;;;;;;4188200;28;20071;-66
2021/10/05 01:00:27;;;;;;;30.83;17.20;;;7.10;99.90;;;;;;4190499;28;20082;-67
2021/10/05 01:02:28;;;;;;;33.43;17.37;;;7.10;99.90;;;;;;4189565;28;20044;-68
2021/10/05 01:04:29;;;;;;;30.57;17.23;;;7.00;99.90;;;;;;4190462;28;20542;-69
2021/10/05 01:06:30;;;;;;;33.53;16.33;;;7.00;99.90;;;;;;4189893;28;20078;-68
2021/10/05 01:08:32;;;;;;;31.37;16.13;;;7.00;99.90;;;;;;4193705;28;20093;-70
2021/10/05 01:10:35;;;;;;;28.80;14.63;;;7.10;99.90;;;;;;4192559;28;20086;-67
2021/10/05 01:12:36;;;;;;;31.20;16.17;;;7.10;99.90;;;;;;4193547;28;20090;-69
2021/10/05 01:14:37;;;;;;;28.30;16.37;;;7.10;99.90;;;;;;4192725;28;20435;-65
2021/10/05 01:16:38;;;;;;;32.83;15.33;;;7.10;99.90;;;;;;4193286;28;20087;-68
2021/10/05 01:18:40;;;;;;;28.40;13.63;;;7.10;99.90;;;;;;4193214;28;20029;-66
2021/10/05 01:21:13;;;;;;;30.27;13.60;;;7.10;99.90;;;;;;4192293;28;20024;-70
2021/10/05 01:23:15;;;;;;;25.03;13.37;;;7.10;99.90;;;;;;4191045;28;20044;-68
2021/10/05 01:25:16;;;;;;;24.60;13.57;;;7.10;99.90;;;;;;4193232;28;20044;-71
2021/10/05 01:27:18;;;;;;;26.37;13.83;;;7.10;99.90;;;;;;4193361;28;20290;-67
2021/10/05 01:29:21;;;;;;;22.70;13.27;;;7.10;99.90;;;;;;4192149;28;20422;-72
2021/10/05 01:31:22;;;;;;;26.37;14.27;;;7.20;99.90;;;;;;4193516;28;20090;-67
2021/10/05 01:33:27;;;;;;;28.77;14.63;;;7.20;99.90;;;;;;4191858;28;20020;-68
2021/10/05 01:35:28;;;;;;;28.20;14.37;;;7.10;99.90;;;;;;4193715;28;20093;-67
2021/10/05 01:37:29;;;;;;;26.63;13.77;;;7.10;99.90;;;;;;4192237;28;20078;-70
2021/10/05 01:39:33;;;;;;;28.87;14.83;;;7.10;99.90;;;;;;4193875;28;20772;-66
2021/10/05 01:41:35;;;;;;;27.73;13.80;;;7.10;99.90;;;;;;4191724;28;20036;-66
2021/10/05 01:43:36;;;;;;;30.93;15.23;;;7.10;99.90;;;;;;4193594;28;20024;-67
2021/10/05 01:45:38;;;;;;;25.00;13.13;;;7.10;99.90;;;;;;4190888;28;20036;-70
2021/10/05 01:47:40;;;;;;;25.60;12.63;;;7.00;99.90;;;;;;4193129;28;20044;-68
2021/10/05 01:49:41;;;;;;;24.93;13.33;;;7.00;99.90;;;;;;4192249;28;20042;-66
2021/10/05 01:51:43;;;;;;;23.77;13.30;;;7.10;99.90;;;;;;4193191;28;20378;-67
2021/10/05 01:53:44;;;;;;;23.57;13.57;;;7.10;99.90;;;;;;4192023;28;20036;-69
2021/10/05 01:55:45;;;;;;;29.43;14.73;;;7.10;99.90;;;;;;4192693;28;20048;-71
2021/10/05 01:57:47;;;;;;;27.13;14.17;;;7.10;99.90;;;;;;4192785;28;20447;-65
2021/10/05 01:59:48;;;;;;;25.03;14.00;;;7.10;99.90;;;;;;4192508;28;20090;-66
2021/10/05 02:01:49;;;;;;;23.33;14.27;;;7.10;99.90;;;;;;4192490;28;20530;-69
2021/10/05 02:03:50;;;;;;;25.90;14.10;;;7.10;99.90;;;;;;4191705;28;20028;-67
2021/10/05 02:05:51;;;;;;;24.90;13.77;;;7.10;99.90;;;;;;4193181;28;20489;-66
2021/10/05 02:07:52;;;;;;;23.83;13.23;;;7.20;99.90;;;;;;4191644;28;20078;-67
2021/10/05 02:09:53;;;;;;;23.27;14.57;;;7.20;99.90;;;;;;4192907;28;20057;-69
2021/10/05 02:11:54;;;;;;;24.40;13.40;;;7.10;99.90;;;;;;4191935;28;20062;-67
2021/10/05 02:13:56;;;;;;;27.97;13.27;;;7.00;99.90;;;;;;4192619;28;20703;-67
2021/10/05 02:15:57;;;;;;;26.43;13.90;;;6.90;99.90;;;;;;4191101;28;20020;-65
2021/10/05 02:17:58;;;;;;;29.33;14.87;;;6.90;99.90;;;;;;4190934;28;20048;-68
2021/10/05 02:19:59;;;;;;;30.37;14.40;;;6.80;99.90;;;;;;4191583;28;20045;-66
2021/10/05 02:22:00;;;;;;;32.50;15.77;;;6.70;99.90;;;;;;4192532;28;20101;-66
2021/10/05 02:26:21;;;;;;;33.47;17.07;;;6.70;99.90;;;;;;4192751;28;20756;-71
2021/10/05 02:28:22;;;;;;;31.83;15.20;;;6.70;99.90;;;;;;4191767;28;20048;-68
2021/10/05 02:30:23;;;;;;;33.33;16.30;;;6.70;99.90;;;;;;4192719;28;20101;-69
2021/10/05 02:32:25;;;;;;;28.87;16.13;;;6.70;99.90;;;;;;4191666;28;20086;-65
2021/10/05 02:34:26;;;;;;;33.73;17.03;;;6.60;99.90;;;;;;4191959;28;20771;-67
2021/10/05 02:36:27;;;;;;;25.60;14.67;;;6.60;99.90;;;;;;4191757;28;20033;-65
2021/10/05 02:38:28;;;;;;;31.37;16.40;;;6.60;99.90;;;;;;4190991;28;20826;-65
2021/10/05 02:40:30;;;;;;;29.87;15.63;;;6.70;99.90;;;;;;4192535;28;20089;-65
2021/10/05 02:42:31;;;;;;;28.13;15.13;;;6.70;99.90;;;;;;4190738;28;20028;-66
2021/10/05 02:44:33;;;;;;;21.53;13.93;;;6.70;99.90;;;;;;4192524;28;20032;-68
2021/10/05 02:46:34;;;;;;;27.30;14.57;;;6.70;99.90;;;;;;4190768;28;20062;-67
2021/10/05 02:48:35;;;;;;;32.90;13.67;;;6.70;99.90;;;;;;4192256;28;20098;-66
2021/10/05 02:50:36;;;;;;;26.47;14.30;;;6.70;99.90;;;;;;4190979;28;20090;-68
2021/10/05 02:52:37;;;;;;;23.90;12.47;;;6.70;99.90;;;;;;4191982;28;20098;-69
2021/10/05 02:54:39;;;;;;;22.37;12.90;;;6.70;99.90;;;;;;4190754;28;20044;-66
2021/10/05 02:56:40;;;;;;;25.53;14.07;;;6.70;99.90;;;;;;4191971;28;20024;-68
2021/10/05 02:58:41;;;;;;;30.63;13.37;;;6.60;99.90;;;;;;4191074;28;20538;-65
2021/10/05 03:00:42;;;;;;;21.87;12.33;;;6.60;99.90;;;;;;4192081;28;20098;-70
2021/10/05 03:02:44;;;;;;;23.53;12.63;;;6.60;99.90;;;;;;4191399;28;20032;-68
2021/10/05 03:04:45;;;;;;;23.80;12.67;;;6.60;99.90;;;;;;4191245;28;20040;-65
2021/10/05 03:06:46;;;;;;;24.77;13.47;;;6.60;99.90;;;;;;4190946;28;20078;-68
2021/10/05 03:08:47;;;;;;;23.47;13.07;;;6.60;99.90;;;;;;4190668;28;20785;-65
2021/10/05 03:10:48;;;;;;;26.90;13.73;;;6.70;99.90;;;;;;4191682;28;20082;-66
2021/10/05 03:12:49;;;;;;;24.03;12.93;;;6.70;99.90;;;;;;4190580;28;20029;-65
2021/10/05 03:14:50;;;;;;;28.17;13.47;;;6.70;99.90;;;;;;4191670;28;20438;-68
2021/10/05 03:16:52;;;;;;;30.40;14.17;;;6.70;99.90;;;;;;4190560;28;20098;-67
2021/10/05 03:18:53;;;;;;;22.17;14.30;;;6.80;99.90;;;;;;4191965;28;20090;-68
2021/10/05 03:20:54;;;;;;;24.50;14.90;;;6.80;99.90;;;;;;4190332;28;20070;-71
2021/10/05 03:22:55;;;;;;;27.20;14.37;;;6.80;99.90;;;;;;4191360;28;20082;-67
2021/10/05 03:24:56;;;;;;;27.00;14.10;;;6.80;99.90;;;;;;4189573;28;20561;-64
2021/10/05 03:26:57;;;;;;;23.47;13.47;;;6.80;99.90;;;;;;4191557;28;20078;-67
2021/10/05 03:28:59;;;;;;;29.77;15.77;;;6.80;99.90;;;;;;4190010;28;20473;-66
2021/10/05 03:31:00;;;;;;;29.77;15.13;;;6.90;99.90;;;;;;4191405;28;20396;-67
2021/10/05 03:33:01;;;;;;;24.90;14.23;;;6.80;99.90;;;;;;4190265;28;20165;-66
2021/10/05 03:35:04;;;;;;;34.90;15.63;;;6.80;99.90;;;;;;4190635;28;20036;-64
2021/10/05 03:37:05;;;;;;;32.77;16.37;;;6.80;99.90;;;;;;4190588;28;20038;-67
2021/10/05 03:39:06;;;;;;;23.30;14.37;;;6.80;99.90;;;;;;4189914;28;20745;-65
2021/10/05 03:41:08;;;;;;;24.00;13.80;;;6.70;99.90;;;;;;4190925;28;20028;-67
2021/10/05 03:43:09;;;;;;;27.17;14.10;;;6.70;99.90;;;;;;4190038;28;20435;-67
2021/10/05 03:45:10;;;;;;;29.83;14.83;;;6.70;99.90;;;;;;4191151;28;20024;-67
2021/10/05 03:47:11;;;;;;;23.10;13.17;;;6.60;99.90;;;;;;4189434;28;20049;-64
2021/10/05 03:49:12;;;;;;;25.33;13.07;;;6.60;99.90;;;;;;4191203;28;20051;-66
2021/10/05 03:51:13;;;;;;;32.53;15.27;;;6.50;99.90;;;;;;4189126;28;20044;-66
2021/10/05 03:53:18;;;;;;;27.73;14.40;;;6.40;99.90;;;;;;4191046;28;20090;-66
2021/10/05 03:55:19;;;;;;;22.13;14.10;;;6.40;99.90;;;;;;4189735;28;20098;-69
2021/10/05 03:57:20;;;;;;;23.23;13.23;;;6.30;99.90;;;;;;4190922;28;20082;-66
2021/10/05 03:59:21;;;;;;;25.47;13.87;;;6.20;99.90;;;;;;4189983;28;20032;-69
2021/10/05 04:01:22;;;;;;;25.27;14.73;;;6.10;99.90;;;;;;4188917;28;20086;-66
2021/10/05 04:03:24;;;;;;;25.50;14.63;;;6.10;99.90;;;;;;4190042;28;20496;-67
2021/10/05 04:05:25;;;;;;;31.80;16.60;;;6.10;99.90;;;;;;4190493;28;20029;-66
2021/10/05 04:07:26;;;;;;;42.23;18.87;;;6.00;99.90;;;;;;4189672;28;20058;-66
2021/10/05 04:09:27;;;;;;;55.53;28.47;;;6.00;99.90;;;;;;4189836;28;20036;-67
2021/10/05 04:11:28;;;;;;;58.43;29.13;;;5.90;99.90;;;;;;4190143;28;20093;-67
2021/10/05 04:13:29;;;;;;;50.03;26.97;;;5.90;99.90;;;;;;4163839;28;20094;-71
2021/10/05 04:15:32;;;;;;;50.97;27.93;;;5.90;99.90;;;;;;4162577;28;20607;-65
2021/10/05 04:17:33;;;;;;;43.63;24.67;;;5.90;99.90;;;;;;4172602;28;20083;-66
2021/10/05 04:19:34;;;;;;;43.63;25.33;;;5.90;99.90;;;;;;4174018;28;20114;-68
2021/10/05 04:21:35;;;;;;;44.00;26.57;;;5.90;99.90;;;;;;4172408;28;20083;-67
2021/10/05 04:23:37;;;;;;;43.80;22.37;;;5.90;99.90;;;;;;4173566;28;20103;-67
2021/10/05 04:25:38;;;;;;;44.20;24.57;;;5.90;99.90;;;;;;4172427;28;20531;-68
2021/10/05 04:27:39;;;;;;;42.00;26.10;;;6.00;99.90;;;;;;4174104;28;20099;-67
2021/10/05 04:29:42;;;;;;;52.07;29.10;;;5.90;99.90;;;;;;4173158;28;20029;-68
2021/10/05 04:31:43;;;;;;;57.60;28.97;;;5.90;99.90;;;;;;4173143;28;20534;-67
2021/10/05 04:33:44;;;;;;;52.33;28.47;;;5.80;99.90;;;;;;4172541;28;20033;-67
2021/10/05 04:35:45;;;;;;;64.60;29.80;;;5.80;99.90;;;;;;4173470;28;20497;-67
2021/10/05 04:37:47;;;;;;;65.87;32.30;;;5.80;99.90;;;;;;4175707;28;20032;-69
2021/10/05 04:39:48;;;;;;;61.30;30.93;;;5.80;99.90;;;;;;4189210;28;20113;-66
2021/10/05 04:41:49;;;;;;;59.20;29.27;;;5.80;99.90;;;;;;4189150;28;20032;-66
2021/10/05 04:43:50;;;;;;;57.00;28.20;;;5.90;99.90;;;;;;4173132;28;20041;-66
2021/10/05 04:45:51;;;;;;;60.57;25.93;;;5.90;99.90;;;;;;4173960;28;20912;-71
2021/10/05 04:47:52;;;;;;;45.97;26.53;;;6.10;99.90;;;;;;4172405;28;20102;-73
2021/10/05 04:49:53;;;;;;;49.07;25.90;;;6.20;99.90;;;;;;4173834;28;20071;-65
2021/10/05 04:51:55;;;;;;;53.93;26.57;;;6.30;99.90;;;;;;4172176;28;20086;-67
2021/10/05 04:53:56;;;;;;;49.40;24.10;;;6.30;99.90;;;;;;4156190;28;20037;-66
2021/10/05 04:55:57;;;;;;;48.27;24.30;;;6.30;99.90;;;;;;4168395;28;20390;-70
2021/10/05 04:58:01;;;;;;;46.90;23.07;;;6.30;99.90;;;;;;4172134;28;20095;-68
2021/10/05 05:00:04;;;;;;;45.80;22.37;;;6.30;99.90;;;;;;4171225;28;20047;-63
2021/10/05 05:02:06;;;;;;;47.37;23.90;;;6.30;99.90;;;;;;4170966;28;20095;-65
2021/10/05 05:04:07;;;;;;;50.40;25.80;;;6.20;99.90;;;;;;4165509;28;20086;-64
2021/10/05 05:06:08;;;;;;;47.60;23.27;;;6.20;99.90;;;;;;4172071;28;20125;-66
2021/10/05 05:08:09;;;;;;;52.00;25.00;;;6.30;99.90;;;;;;4170954;28;20049;-70
2021/10/05 05:10:10;;;;;;;49.83;25.23;;;6.50;99.90;;;;;;4171508;28;20091;-65
2021/10/05 05:12:11;;;;;;;57.03;24.70;;;6.60;99.90;;;;;;4159567;28;20990;-64
2021/10/05 05:14:14;;;;;;;58.60;27.67;;;6.80;99.90;;;;;;4165856;28;20033;-65
2021/10/05 05:16:15;;;;;;;45.47;24.43;;;7.00;99.90;;;;;;4173307;28;20080;-66
2021/10/05 05:18:16;;;;;;;53.77;24.50;;;7.30;99.90;;;;;;4170537;28;20451;-67
2021/10/05 05:20:17;;;;;;;43.07;20.83;;;7.60;99.90;;;;;;4171834;28;20082;-64
2021/10/05 05:22:18;;;;;;;49.33;22.33;;;7.90;99.90;;;;;;4170265;28;20049;-71
2021/10/05 05:24:19;;;;;;;43.37;21.43;;;8.10;99.90;;;;;;4167096;28;20091;-66
2021/10/05 05:26:21;;;;;;;53.80;21.70;;;8.30;99.90;;;;;;4170488;28;20142;-65
2021/10/05 05:28:22;;;;;;;44.93;21.13;;;8.60;99.90;;;;;;4171582;28;20455;-67
2021/10/05 05:30:23;;;;;;;41.20;19.53;;;8.90;99.90;;;;;;4171138;28;20041;-69
2021/10/05 05:32:24;;;;;;;37.27;18.67;;;9.30;99.90;;;;;;4171546;28;20041;-67
2021/10/05 05:34:27;;;;;;;37.83;20.23;;;9.60;99.90;;;;;;4165836;28;20037;-68
2021/10/05 05:36:28;;;;;;;41.33;18.67;;;10.00;99.90;;;;;;4159523;28;20087;-69
2021/10/05 05:38:29;;;;;;;33.80;18.00;;;10.30;99.90;;;;;;4171088;28;20099;-70
2021/10/05 05:40:30;;;;;;;52.63;18.80;;;10.70;99.90;;;;;;4170671;28;20033;-67
2021/10/05 05:42:32;;;;;;;35.87;19.33;;;11.00;99.90;;;;;;4170692;28;20044;-70
2021/10/05 05:44:34;;;;;;;36.43;18.77;;;11.30;99.90;;;;;;4165307;28;20115;-65
2021/10/05 05:46:35;;;;;;;48.40;18.87;;;11.60;99.90;;;;;;4171696;28;20079;-69
2021/10/05 05:48:36;;;;;;;49.30;19.43;;;11.80;99.90;;;;;;4170126;28;20123;-71
2021/10/05 05:50:38;;;;;;;38.60;18.17;;;11.90;99.90;;;;;;4171784;28;20048;-66
2021/10/05 05:52:39;;;;;;;38.87;17.47;;;12.00;99.90;;;;;;4171236;28;20095;-67
2021/10/05 05:54:40;;;;;;;30.20;15.93;;;12.40;99.90;;;;;;4169772;28;20095;-68
2021/10/05 05:56:41;;;;;;;30.07;16.70;;;12.40;99.90;;;;;;4173309;28;20447;-66
2021/10/05 05:58:42;;;;;;;38.17;17.77;;;12.30;99.90;;;;;;4175436;28;20049;-70
2021/10/05 06:00:44;;;;;;;30.80;16.27;;;12.50;99.90;;;;;;4173375;28;20037;-67
2021/10/05 06:02:46;;;;;;;29.43;16.67;;;12.60;99.90;;;;;;4172761;28;20041;-69
2021/10/05 06:04:47;;;;;;;37.10;16.60;;;12.70;99.90;;;;;;4166491;28;20079;-66
2021/10/05 06:06:48;;;;;;;31.53;16.77;;;12.40;99.90;;;;;;4173194;28;20033;-68
2021/10/05 06:08:50;;;;;;;37.27;16.70;;;12.30;99.90;;;;;;4173414;28;20049;-66
2021/10/05 06:10:53;;;;;;;32.50;16.77;;;12.20;99.90;;;;;;4172450;28;20107;-66
2021/10/05 06:12:54;;;;;;;32.77;16.03;;;12.40;99.90;;;;;;4173595;28;20118;-66
2021/10/05 06:14:55;;;;;;;34.83;15.57;;;12.40;99.90;;;;;;4168051;28;20024;-68
2021/10/05 06:16:58;;;;;;;26.17;14.20;;;12.40;99.90;;;;;;4174454;28;20546;-66
2021/10/05 06:18:59;;;;;;;27.90;14.10;;;12.40;99.90;;;;;;4172657;28;20045;-67
2021/10/05 06:21:00;;;;;;;30.10;13.17;;;12.40;99.90;;;;;;4174619;28;20056;-70
2021/10/05 06:23:07;;;;;;;27.53;13.53;;;12.10;99.90;;;;;;4170184;28;20158;-66
2021/10/05 06:25:11;;;;;;;28.27;13.83;;;12.30;99.90;;;;;;4173993;28;20049;-71
2021/10/05 06:27:12;;;;;;;33.23;15.03;;;12.50;99.90;;;;;;4173049;28;20045;-67
2021/10/05 06:29:13;;;;;;;35.57;15.40;;;12.60;99.90;;;;;;4174057;28;20045;-68
2021/10/05 06:31:15;;;;;;;29.20;14.03;;;13.00;99.90;;;;;;4172480;28;20764;-67
2021/10/05 06:33:17;;;;;;;22.90;14.23;;;13.30;99.90;;;;;;4168857;28;20833;-67
2021/10/05 06:35:21;;;;;;;27.33;14.10;;;13.40;99.90;;;;;;4172935;28;20053;-66
2021/10/05 06:37:22;;;;;;;39.97;15.23;;;13.80;99.90;;;;;;4173394;28;20061;-71
2021/10/05 06:39:23;;;;;;;31.70;14.53;;;13.80;99.90;;;;;;4172722;28;20033;-67
2021/10/05 06:41:25;;;;;;;27.43;13.93;;;13.90;99.90;;;;;;4173378;28;20044;-67
2021/10/05 06:43:26;;;;;;;22.10;12.40;;;13.80;99.90;;;;;;4167423;28;20040;-67
2021/10/05 06:45:28;;;;;;;21.10;12.90;;;13.80;99.90;;;;;;4173459;28;20484;-68
2021/10/05 06:47:29;;;;;;;25.73;12.90;;;13.70;99.90;;;;;;4173199;28;20033;-66
2021/10/05 06:49:30;;;;;;;24.50;11.97;;;13.40;99.90;;;;;;4172925;28;20528;-72
2021/10/05 06:51:31;;;;;;;23.97;12.10;;;13.10;99.90;;;;;;4173641;28;20440;-67
2021/10/05 06:53:32;;;;;;;26.20;13.03;;;13.00;99.90;;;;;;4167136;28;20041;-66
2021/10/05 06:55:34;;;;;;;20.87;11.33;;;13.10;99.90;;;;;;4173820;28;20053;-66
2021/10/05 06:57:35;;;;;;;21.57;11.10;;;12.90;99.90;;;;;;4172370;28;20057;-70
2021/10/05 06:59:36;;;;;;;22.63;11.83;;;13.00;99.90;;;;;;4174577;28;20059;-68
2021/10/05 07:01:37;;;;;;;28.53;12.50;;;13.00;99.90;;;;;;4172320;28;20099;-67
2021/10/05 07:03:38;;;;;;;21.10;12.67;;;12.90;99.90;;;;;;4168332;28;20053;-67
2021/10/05 07:05:39;;;;;;;15.90;11.20;;;12.80;99.90;;;;;;4172261;28;20037;-69
2021/10/05 07:07:42;;;;;;;17.23;10.50;;;13.00;99.90;;;;;;4173262;28;20566;-72
2021/10/05 07:09:43;;;;;;;21.07;11.37;;;12.90;99.90;;;;;;4172586;28;20025;-66
2021/10/05 07:11:46;;;;;;;19.60;10.97;;;13.00;99.90;;;;;;4173313;28;20087;-67
2021/10/05 07:13:48;;;;;;;21.07;11.23;;;13.20;99.90;;;;;;4167613;28;20375;-66
2021/10/05 07:15:49;;;;;;;28.20;13.73;;;13.30;99.90;;;;;;4172756;28;20045;-66
2021/10/05 07:17:55;;;;;;;20.53;9.37;;;13.60;99.90;;;;;;4172754;28;20044;-69
2021/10/05 07:19:56;;;;;;;19.27;9.10;;;14.00;99.90;;;;;;4172548;28;20041;-70
2021/10/05 07:21:58;;;;;;;18.70;8.63;;;14.10;99.90;;;;;;4172280;28;20559;-72
2021/10/05 07:23:59;;;;;;;21.60;8.13;;;14.20;99.90;;;;;;4166769;28;20033;-70
2021/10/05 07:26:00;;;;;;;10.10;6.73;;;14.40;99.90;;;;;;4173449;28;20045;-71
2021/10/05 07:28:01;;;;;;;12.73;6.97;;;14.60;99.90;;;;;;4171767;28;20041;-68
2021/10/05 07:30:07;;;;;;;13.87;6.23;;;14.70;99.90;;;;;;4173528;28;20041;-67
2021/10/05 07:32:08;;;;;;;9.00;5.93;;;14.90;99.90;;;;;;4171637;28;20048;-67
2021/10/05 07:34:10;;;;;;;11.53;5.63;;;15.10;99.90;;;;;;4167949;28;20037;-67
2021/10/05 07:36:11;;;;;;;9.53;5.87;;;15.20;99.90;;;;;;4171159;28;20876;-69
2021/10/05 07:38:13;;;;;;;11.20;5.17;;;15.10;99.90;;;;;;4173002;28;20045;-70
2021/10/05 07:40:16;;;;;;;12.33;5.40;;;15.20;99.90;;;;;;4171459;28;20047;-67
2021/10/05 07:42:20;;;;;;;11.30;5.33;;;15.30;99.90;;;;;;4171968;28;20053;-66
2021/10/05 07:44:21;;;;;;;14.97;5.87;;;15.30;99.90;;;;;;4167036;28;20049;-68
2021/10/05 07:46:22;;;;;;;12.13;5.60;;;15.40;99.90;;;;;;4172677;28;20078;-65
2021/10/05 07:48:24;;;;;;;12.77;5.73;;;15.40;99.90;;;;;;4171761;28;20095;-65
2021/10/05 07:50:26;;;;;;;14.07;5.07;;;15.60;99.90;;;;;;4172462;28;20036;-68
2021/10/05 07:52:27;;;;;;;10.87;5.50;;;15.70;99.90;;;;;;4171817;28;20127;-67
2021/10/05 07:54:28;;;;;;;8.40;5.20;;;15.60;99.90;;;;;;4166877;28;20455;-66
2021/10/05 07:56:29;;;;;;;8.87;4.90;;;15.90;99.90;;;;;;4172294;28;20452;-66
2021/10/05 07:58:30;;;;;;;10.18;4.68;;;16.10;99.90;;;;;;4171249;28;20075;-65
2021/10/05 08:00:32;;;;;;;8.68;3.88;;;16.10;99.90;;;;;;4172720;28;20102;-67
2021/10/05 08:02:33;;;;;;;6.18;4.07;;;16.20;99.90;;;;;;4171365;28;20037;-66
2021/10/05 08:04:34;;;;;;;8.77;4.60;;;16.30;99.90;;;;;;4167268;28;20134;-64
2021/10/05 08:06:35;;;;;;;10.38;4.63;;;16.50;99.90;;;;;;4171388;28;20087;-66
2021/10/05 08:08:36;;;;;;;8.57;4.47;;;16.50;99.90;;;;;;4172641;28;20107;-70
2021/10/05 08:10:39;;;;;;;9.95;4.65;;;16.50;99.90;;;;;;4171221;28;20041;-67
2021/10/05 08:12:40;;;;;;;8.13;4.63;;;16.60;99.90;;;;;;4172492;28;20044;-66
2021/10/05 08:14:42;;;;;;;11.00;4.63;;;16.50;99.90;;;;;;4165411;28;20052;-67
2021/10/05 08:16:45;;;;;;;7.85;5.25;;;16.60;99.90;;;;;;4171786;28;20029;-66
2021/10/05 08:18:47;;;;;;;7.78;5.63;;;16.60;99.90;;;;;;4171392;28;20025;-66
2021/10/05 08:20:48;;;;;;;8.38;4.07;;;16.60;99.90;;;;;;4171804;28;20037;-68
2021/10/05 08:22:50;;;;;;;6.82;4.30;;;16.60;99.90;;;;;;4171243;28;20049;-68
2021/10/05 08:24:54;;;;;;;10.82;5.00;;;16.70;99.90;;;;;;4165012;28;20730;-66
2021/10/05 08:26:55;;;;;;;11.40;5.07;;;16.60;99.90;;;;;;4171821;28;20102;-65
2021/10/05 08:28:56;;;;;;;11.52;5.22;;;16.50;99.90;;;;;;4171114;28;20493;-67
2021/10/05 08:30:57;;;;;;;9.13;4.53;;;16.50;99.90;;;;;;4171985;28;20021;-66
2021/10/05 08:32:59;;;;;;;15.60;5.78;;;16.50;99.90;;;;;;4170744;28;20559;-66
2021/10/05 08:35:00;;;;;;;10.80;6.35;;;16.40;99.90;;;;;;4166795;28;20029;-65
2021/10/05 08:37:01;;;;;;;11.15;4.97;;;16.50;99.90;;;;;;4170930;28;20961;-66
2021/10/05 08:39:03;;;;;;;8.32;4.63;;;16.50;99.90;;;;;;4172086;28;20094;-66
2021/10/05 08:41:04;;;;;;;8.35;4.85;;;16.60;99.90;;;;;;4170980;28;20060;-72
2021/10/05 08:43:06;;;;;;;9.25;5.57;;;16.70;99.90;;;;;;4169573;28;20045;-66
2021/10/05 08:45:09;;;;;;;11.48;5.72;;;16.70;99.90;;;;;;4170401;28;20075;-67
2021/10/05 08:47:10;;;;;;;14.32;5.60;;;16.70;99.90;;;;;;4172394;28;20049;-67
2021/10/05 08:49:11;;;;;;;14.43;5.43;;;16.60;99.90;;;;;;4170610;28;20053;-67
2021/10/05 08:51:12;;;;;;;10.48;5.57;;;16.70;99.90;;;;;;4171456;28;20458;-67
2021/10/05 08:53:14;;;;;;;8.40;5.00;;;16.70;99.90;;;;;;4166060;28;20067;-66
2021/10/05 08:55:15;;;;;;;10.45;5.20;;;16.80;99.90;;;;;;4171068;28;20079;-68
2021/10/05 08:57:16;;;;;;;12.40;5.65;;;16.80;99.90;;;;;;4171091;28;20555;-67
2021/10/05 08:59:17;;;;;;;10.50;5.40;;;16.80;99.90;;;;;;4171215;28;20095;-67
2021/10/05 09:01:18;;;;;;;6.40;4.63;;;16.90;99.90;;;;;;4171674;28;20079;-71
2021/10/05 09:03:24;;;;;;;10.98;5.93;;;17.10;99.90;;;;;;4165241;28;20049;-66
2021/10/05 09:05:26;;;;;;;11.32;5.80;;;17.20;99.70;;;;;;4172140;28;20037;-67
2021/10/05 09:07:27;;;;;;;11.55;5.10;;;17.30;99.70;;;;;;4170520;28;20087;-73
2021/10/05 09:09:28;;;;;;;7.55;5.65;;;17.30;99.70;;;;;;4172014;28;20506;-69
2021/10/05 09:11:47;;;;;;;12.38;5.22;;;17.40;99.50;;;;;;4170718;28;20048;-65
2021/10/05 09:13:52;;;;;;;7.80;4.85;;;17.50;99.20;;;;;;4172419;28;20045;-69
2021/10/05 09:15:53;;;;;;;10.75;5.30;;;17.60;99.30;;;;;;4171843;28;20037;-66
2021/10/05 09:17:59;;;;;;;7.18;4.90;;;17.60;99.20;;;;;;4173423;28;20049;-69
2021/10/05 09:20:00;;;;;;;8.60;5.15;;;17.60;99.00;;;;;;4172208;28;20055;-70
2021/10/05 09:22:04;;;;;;;8.82;5.10;;;17.70;99.00;;;;;;4173241;28;20049;-67
2021/10/05 09:24:06;;;;;;;8.35;4.95;;;17.70;98.80;;;;;;4171514;28;20095;-67
2021/10/05 09:26:08;;;;;;;8.00;5.03;;;17.80;98.70;;;;;;4173313;28;20037;-67
2021/10/05 09:28:21;;;;;;;11.40;5.22;;;17.70;98.70;;;;;;4174039;28;20033;-68
2021/10/05 09:30:23;;;;;;;8.65;5.45;;;17.80;98.60;;;;;;4176835;28;20037;-70
2021/10/05 09:32:24;;;;;;;7.32;4.80;;;17.90;98.60;;;;;;4175152;28;20029;-71
2021/10/05 09:34:36;;;;;;;9.40;5.15;;;17.90;98.60;;;;;;4175915;28;20811;-67
2021/10/05 09:36:37;;;;;;;9.82;4.78;;;18.00;98.40;;;;;;4175126;28;20033;-70
2021/10/05 09:38:38;;;;;;;6.20;4.45;;;18.10;98.30;;;;;;4176045;28;20021;-69
2021/10/05 09:40:40;;;;;;;6.97;4.80;;;18.10;98.20;;;;;;4175709;28;20083;-67
2021/10/05 09:42:44;;;;;;;11.65;5.70;;;18.00;98.00;;;;;;4175366;28;20118;-67
2021/10/05 09:44:57;;;;;;;8.02;5.53;;;17.90;98.10;;;;;;4175468;28;20029;-66
2021/10/05 09:46:58;;;;;;;11.10;4.95;;;17.80;97.70;;;;;;4174725;28;20390;-66
2021/10/05 09:49:06;;;;;;;9.13;5.32;;;17.80;98.10;;;;;;4175766;28;20150;-69
2021/10/05 09:51:18;;;;;;;6.13;4.22;;;17.80;97.90;;;;;;4174263;28;20726;-68
2021/10/05 09:53:20;;;;;;;6.80;5.78;;;17.80;98.00;;;;;;4175536;28;20086;-69
2021/10/05 09:55:23;;;;;;;8.35;4.68;;;17.90;97.80;;;;;;4174102;28;20198;-69
2021/10/05 09:57:25;;;;;;;6.75;4.55;;;18.00;97.70;;;;;;4175704;28;20086;-71
2021/10/05 09:59:26;;;;;;;5.18;4.47;;;18.10;97.50;;;;;;4175017;28;20037;-66
2021/10/05 10:01:27;;;;;;;6.40;4.18;;;18.10;97.40;;;;;;4176012;28;20107;-66
2021/10/05 10:03:29;;;;;;;7.80;4.90;;;18.10;97.30;;;;;;4174286;28;20053;-70
2021/10/05 10:05:30;;;;;;;9.73;4.05;;;18.10;97.30;;;;;;4175858;28;20037;-66
2021/10/05 10:07:35;;;;;;;9.80;4.55;;;18.20;97.20;;;;;;4174383;28;20037;-70
2021/10/05 10:09:36;;;;;;;7.38;4.18;;;18.20;97.30;;;;;;4175693;28;20044;-67
2021/10/05 10:11:37;;;;;;;6.15;4.03;;;18.30;96.80;;;;;;4174525;28;20102;-67
2021/10/05 10:13:42;;;;;;;8.77;4.25;;;18.30;96.90;;;;;;4175755;28;20107;-68
2021/10/05 10:15:45;;;;;;;10.48;4.25;;;18.40;97.00;;;;;;4174291;28;20555;-68
2021/10/05 10:17:46;;;;;;;12.25;5.57;;;18.30;96.90;;;;;;4175719;28;20029;-66
2021/10/05 10:19:47;;;;;;;8.23;4.55;;;18.20;97.10;;;;;;4174582;28;20049;-66
2021/10/05 10:21:48;;;;;;;7.95;4.25;;;18.10;97.30;;;;;;4174849;28;20044;-67
2021/10/05 10:24:00;;;;;;;9.10;4.95;;;18.00;97.20;;;;;;4174705;28;20059;-72
2021/10/05 10:26:04;;;;;;;8.35;4.70;;;18.00;97.10;;;;;;4175062;28;20874;-66
2021/10/05 10:28:13;;;;;;;11.70;4.60;;;18.00;97.30;;;;;;4175297;28;20033;-66